createdAt,value
2022-12-14T00:00:34.876Z,31.93
2022-12-14T00:03:03.225Z,28.47
2022-12-14T00:05:31.598Z,27.00
2022-12-14T00:08:01.768Z,24.37
2022-12-14T00:10:30.137Z,24.33
2022-12-14T00:12:59.414Z,28.70
2022-12-14T00:15:28.996Z,26.13
2022-12-14T00:17:57.732Z,26.13
2022-12-14T00:20:27.470Z,24.07
2022-12-14T00:22:57.766Z,21.73
2022-12-14T00:25:27.672Z,27.03
2022-12-14T00:27:56.340Z,28.20
2022-12-14T00:30:24.719Z,25.13
2022-12-14T00:32:52.979Z,25.60
2022-12-14T00:35:21.696Z,25.87
2022-12-14T00:37:50.280Z,22.43
2022-12-14T00:40:18.864Z,24.53
2022-12-14T00:42:48.417Z,24.43
2022-12-14T00:45:16.805Z,22.10
2022-12-14T00:47:44.955Z,29.33
2022-12-14T00:50:13.193Z,23.93
2022-12-14T00:52:41.680Z,22.70
2022-12-14T00:55:10.618Z,23.37
2022-12-14T00:57:38.793Z,25.87
2022-12-14T01:00:09.985Z,22.70
2022-12-14T01:02:38.189Z,24.13
2022-12-14T01:05:07.155Z,25.90
2022-12-14T01:07:36.017Z,22.73
2022-12-14T01:10:04.354Z,22.83
2022-12-14T01:12:32.533Z,27.43
2022-12-14T01:15:00.925Z,22.00
2022-12-14T01:17:30.586Z,19.90
2022-12-14T01:19:58.835Z,26.60
2022-12-14T01:22:27.247Z,22.07
2022-12-14T01:24:55.465Z,24.07
2022-12-14T01:27:23.685Z,24.13
2022-12-14T01:29:52.109Z,23.60
2022-12-14T01:32:20.528Z,26.70
2022-12-14T01:34:51.226Z,31.37
2022-12-14T01:37:19.525Z,25.57
2022-12-14T01:39:48.443Z,25.20
2022-12-14T01:42:17.306Z,29.40
2022-12-14T01:44:54.867Z,24.10
2022-12-14T01:47:42.064Z,23.97
2022-12-14T01:50:20.470Z,23.50
2022-12-14T01:52:51.104Z,23.87
2022-12-14T01:55:23.873Z,29.93
2022-12-14T01:57:55.954Z,28.30
2022-12-14T02:00:24.722Z,24.57
2022-12-14T02:02:58.147Z,28.57
2022-12-14T02:05:28.736Z,28.20
2022-12-14T02:07:57.740Z,25.87
2022-12-14T02:10:28.827Z,26.47
2022-12-14T02:13:03.587Z,25.87
2022-12-14T02:15:33.135Z,26.73
2022-12-14T02:18:04.211Z,23.10
2022-12-14T02:20:39.377Z,29.40
2022-12-14T02:23:34.311Z,23.30
2022-12-14T02:26:28.944Z,23.03
2022-12-14T02:29:38.460Z,25.20
2022-12-14T02:32:23.753Z,22.43
2022-12-14T02:35:00.535Z,26.80
2022-12-14T02:37:36.270Z,28.33
2022-12-14T02:40:15.296Z,25.90
2022-12-14T02:42:55.691Z,32.23
2022-12-14T02:45:31.296Z,22.43
2022-12-14T02:48:03.874Z,21.20
2022-12-14T02:50:40.942Z,22.13
2022-12-14T02:53:16.718Z,26.67
2022-12-14T02:55:50.259Z,27.43
2022-12-14T02:58:24.985Z,25.77
2022-12-14T03:00:55.851Z,29.63
2022-12-14T03:03:25.374Z,23.40
2022-12-14T03:05:58.458Z,24.67
2022-12-14T03:08:29.120Z,24.17
2022-12-14T03:11:00.946Z,26.37
2022-12-14T03:13:33.099Z,29.57
2022-12-14T03:16:07.903Z,28.33
2022-12-14T03:18:40.356Z,23.47
2022-12-14T03:21:12.952Z,27.47
2022-12-14T03:23:44.434Z,31.03
2022-12-14T03:26:17.267Z,25.83
2022-12-14T03:28:48.645Z,27.93
2022-12-14T03:31:23.453Z,25.60
2022-12-14T03:33:56.014Z,30.07
2022-12-14T03:36:31.461Z,25.33
2022-12-14T03:39:04.017Z,24.20
2022-12-14T03:41:44.547Z,31.53
2022-12-14T03:44:27.320Z,27.60
2022-12-14T03:47:02.591Z,23.57
2022-12-14T03:49:47.189Z,30.93
2022-12-14T03:52:25.274Z,22.90
2022-12-14T03:54:59.286Z,28.50
2022-12-14T03:57:39.666Z,27.50
2022-12-14T04:00:10.765Z,23.07
2022-12-14T04:02:49.392Z,24.27
2022-12-14T04:05:24.973Z,24.73
2022-12-14T04:08:01.677Z,26.00
2022-12-14T04:10:52.239Z,22.03
2022-12-14T04:13:49.298Z,24.30
2022-12-14T04:16:41.251Z,22.43
2022-12-14T04:19:17.504Z,21.63
2022-12-14T04:21:50.246Z,21.87
2022-12-14T04:24:41.980Z,26.17
2022-12-14T04:27:16.220Z,18.17
2022-12-14T04:30:00.884Z,23.20
2022-12-14T04:32:35.072Z,25.57
2022-12-14T04:35:11.588Z,23.13
2022-12-14T04:37:42.915Z,28.90
2022-12-14T04:40:15.645Z,28.87
2022-12-14T04:42:49.458Z,20.80
2022-12-14T04:45:21.404Z,26.13
2022-12-14T04:48:01.232Z,26.73
2022-12-14T04:50:36.827Z,26.37
2022-12-14T04:53:11.665Z,24.43
2022-12-14T04:55:44.034Z,22.57
2022-12-14T04:58:16.107Z,22.20
2022-12-14T05:00:56.065Z,19.70
2022-12-14T05:03:30.159Z,20.40
2022-12-14T05:06:10.106Z,21.80
2022-12-14T05:08:55.289Z,20.70
2022-12-14T05:14:22.253Z,26.67
2022-12-14T05:16:51.161Z,24.23
2022-12-14T05:19:19.388Z,24.40
2022-12-14T05:21:49.170Z,20.07
2022-12-14T05:24:18.253Z,23.00
2022-12-14T05:26:46.664Z,20.17
2022-12-14T05:29:15.213Z,20.93
2022-12-14T05:31:49.146Z,21.70
2022-12-14T05:34:18.415Z,23.60
2022-12-14T05:36:48.327Z,24.83
2022-12-14T05:39:17.369Z,21.83
2022-12-14T05:41:46.252Z,22.73
2022-12-14T05:44:14.602Z,26.27
2022-12-14T05:46:42.871Z,22.07
2022-12-14T05:49:11.466Z,23.53
2022-12-14T05:51:40.236Z,23.83
2022-12-14T05:54:09.890Z,29.37
2022-12-14T05:56:38.176Z,23.37
2022-12-14T05:59:06.712Z,24.27
2022-12-14T06:01:34.961Z,27.07
2022-12-14T06:04:03.377Z,21.80
2022-12-14T06:06:34.288Z,21.37
2022-12-14T06:09:02.866Z,21.43
2022-12-14T06:11:32.816Z,20.03
2022-12-14T06:14:01.052Z,25.47
2022-12-14T06:16:29.352Z,20.80
2022-12-14T06:19:00.032Z,19.40
2022-12-14T06:21:30.478Z,24.37
2022-12-14T06:23:59.886Z,19.73
2022-12-14T06:26:29.738Z,21.60
2022-12-14T06:29:00.075Z,21.73
2022-12-14T06:31:31.169Z,20.07
2022-12-14T06:34:00.625Z,25.03
2022-12-14T06:36:30.879Z,23.40
2022-12-14T06:39:02.789Z,19.50
2022-12-14T06:41:31.258Z,23.50
2022-12-14T06:44:06.089Z,25.30
2022-12-14T06:46:36.687Z,23.17
2022-12-14T06:49:07.482Z,22.67
2022-12-14T06:51:41.426Z,24.17
2022-12-14T06:54:11.674Z,20.27
2022-12-14T06:56:40.750Z,18.50
2022-12-14T06:59:10.979Z,20.03
2022-12-14T07:01:40.065Z,25.57
2022-12-14T07:04:09.116Z,26.27
2022-12-14T07:06:39.757Z,20.60
2022-12-14T07:09:09.711Z,23.63
2022-12-14T07:11:38.078Z,18.93
2022-12-14T07:14:07.463Z,17.83
2022-12-14T07:16:37.404Z,17.47
2022-12-14T07:19:05.979Z,21.47
2022-12-14T07:21:35.013Z,19.20
2022-12-14T07:24:03.409Z,23.30
2022-12-14T07:26:31.636Z,20.77
2022-12-14T07:29:01.302Z,21.33
2022-12-14T07:31:30.103Z,21.07
2022-12-14T07:34:00.948Z,24.67
2022-12-14T07:36:33.120Z,19.47
2022-12-14T07:39:01.493Z,24.77
2022-12-14T07:41:31.888Z,20.67
2022-12-14T07:44:01.611Z,22.33
2022-12-14T07:46:32.125Z,22.93
2022-12-14T07:49:03.635Z,20.73
2022-12-14T07:51:34.160Z,20.17
2022-12-14T07:54:03.908Z,21.10
2022-12-14T07:56:34.573Z,19.57
2022-12-14T07:59:05.234Z,21.73
2022-12-14T08:01:35.529Z,21.10
2022-12-14T08:04:08.349Z,19.93
2022-12-14T08:06:37.543Z,22.20
2022-12-14T08:09:06.918Z,20.83
2022-12-14T08:11:35.832Z,17.83
2022-12-14T08:14:05.853Z,16.57
2022-12-14T08:16:35.503Z,19.27
2022-12-14T08:19:04.124Z,22.27
2022-12-14T08:21:33.773Z,18.20
2022-12-14T08:24:01.982Z,19.97
2022-12-14T08:26:35.480Z,26.67
2022-12-14T08:29:05.561Z,20.37
2022-12-14T08:31:34.990Z,26.73
2022-12-14T08:34:03.647Z,25.17
2022-12-14T08:36:35.378Z,25.53
2022-12-14T08:39:06.340Z,21.23
2022-12-14T08:41:35.176Z,21.93
2022-12-14T08:44:05.034Z,20.50
2022-12-14T08:46:34.953Z,20.87
2022-12-14T08:49:03.484Z,19.87
2022-12-14T08:51:32.288Z,19.63
2022-12-14T08:54:01.872Z,20.33
2022-12-14T08:56:30.423Z,25.93
2022-12-14T08:58:59.053Z,24.33
2022-12-14T09:01:33.305Z,21.43
2022-12-14T09:04:07.949Z,17.03
2022-12-14T09:06:38.291Z,22.73
2022-12-14T09:09:15.712Z,20.33
2022-12-14T09:11:45.313Z,19.63
2022-12-14T09:14:14.005Z,19.83
2022-12-14T09:16:42.619Z,17.00
2022-12-14T09:19:11.256Z,20.30
2022-12-14T09:21:39.988Z,18.70
2022-12-14T09:24:11.920Z,18.30
2022-12-14T09:26:40.453Z,15.37
2022-12-14T09:29:08.661Z,17.50
2022-12-14T09:31:37.143Z,22.00
2022-12-14T09:34:05.724Z,15.97
2022-12-14T09:36:34.791Z,36.53
2022-12-14T09:39:03.929Z,20.23
2022-12-14T09:41:50.550Z,16.80
2022-12-14T09:44:29.320Z,17.60
2022-12-14T09:47:05.758Z,24.27
2022-12-14T09:49:36.422Z,19.10
2022-12-14T09:52:08.215Z,20.03
2022-12-14T09:54:39.762Z,18.73
2022-12-14T09:57:14.132Z,18.47
2022-12-14T09:59:42.522Z,20.07
2022-12-14T10:02:36.736Z,21.23
2022-12-14T10:05:19.916Z,20.23
2022-12-14T10:07:56.727Z,16.83
2022-12-14T10:10:29.838Z,19.33
2022-12-14T10:13:10.202Z,22.30
2022-12-14T10:15:46.357Z,21.33
2022-12-14T10:18:59.051Z,18.77
2022-12-14T10:21:38.000Z,24.97
2022-12-14T10:24:07.917Z,22.17
2022-12-14T10:26:41.465Z,21.33
2022-12-14T10:29:19.066Z,20.80
2022-12-14T10:31:56.895Z,23.37
2022-12-14T10:34:30.699Z,21.90
2022-12-14T10:37:13.683Z,18.60
2022-12-14T10:39:55.255Z,20.43
2022-12-14T10:42:30.671Z,21.40
2022-12-14T10:45:41.863Z,23.77
2022-12-14T10:48:25.820Z,22.17
2022-12-14T10:51:00.449Z,19.77
2022-12-14T10:53:40.217Z,21.80
2022-12-14T10:56:16.229Z,21.17
2022-12-14T10:58:44.535Z,21.43
2022-12-14T11:01:16.816Z,17.03
2022-12-14T11:03:55.278Z,21.20
2022-12-14T11:06:23.587Z,21.43
2022-12-14T11:08:56.929Z,21.90
2022-12-14T11:11:27.094Z,17.83
2022-12-14T11:14:07.323Z,17.33
2022-12-14T11:16:39.444Z,23.07
2022-12-14T11:19:17.992Z,19.60
2022-12-14T11:21:50.112Z,23.17
2022-12-14T11:24:23.977Z,26.57
2022-12-14T11:26:54.740Z,26.77
2022-12-14T11:29:32.099Z,32.40
2022-12-14T11:32:02.955Z,19.60
2022-12-14T11:34:35.044Z,17.23
2022-12-14T11:37:15.553Z,22.40
2022-12-14T11:39:43.971Z,14.10
2022-12-14T11:42:18.138Z,15.97
2022-12-14T11:44:48.181Z,16.87
2022-12-14T11:47:19.563Z,16.57
2022-12-14T11:49:49.764Z,18.60
2022-12-14T11:52:19.921Z,20.03
2022-12-14T11:54:55.198Z,21.43
2022-12-14T11:57:27.630Z,15.60
2022-12-14T11:59:59.253Z,16.20
2022-12-14T12:02:31.658Z,16.67
2022-12-14T12:05:05.935Z,15.90
2022-12-14T12:07:37.165Z,16.37
2022-12-14T12:10:16.600Z,17.43
2022-12-14T12:12:55.045Z,16.00
2022-12-14T12:15:26.878Z,17.27
2022-12-14T12:18:02.202Z,14.93
2022-12-14T12:20:36.618Z,15.20
2022-12-14T12:23:11.337Z,15.47
2022-12-14T12:25:41.144Z,16.67
2022-12-14T12:28:16.954Z,15.67
2022-12-14T12:30:49.837Z,16.53
2022-12-14T12:33:33.815Z,14.37
2022-12-14T12:36:05.006Z,15.20
2022-12-14T12:38:53.181Z,13.97
2022-12-14T12:41:29.410Z,17.77
2022-12-14T12:44:05.614Z,17.07
2022-12-14T12:47:14.873Z,14.53
2022-12-14T12:49:35.435Z,21.17
2022-12-14T12:52:08.935Z,17.50
2022-12-14T12:54:43.251Z,18.43
2022-12-14T12:57:14.957Z,13.43
2022-12-14T12:59:49.450Z,15.23
2022-12-14T13:02:32.771Z,17.67
2022-12-14T13:05:29.050Z,18.03
2022-12-14T13:07:57.572Z,14.43
2022-12-14T13:10:28.685Z,17.20
2022-12-14T13:12:59.998Z,17.13
2022-12-14T13:15:31.712Z,17.23
2022-12-14T13:18:04.919Z,16.57
2022-12-14T13:20:35.870Z,15.97
2022-12-14T13:23:35.978Z,18.90
2022-12-14T13:26:08.118Z,16.60
2022-12-14T13:28:57.748Z,14.70
2022-12-14T13:31:36.704Z,18.53
2022-12-14T13:34:26.082Z,13.70
2022-12-14T13:37:17.271Z,14.90
2022-12-14T13:40:25.115Z,15.10
2022-12-14T13:43:01.919Z,17.13
2022-12-14T13:45:33.474Z,16.40
2022-12-14T13:48:02.269Z,15.57
2022-12-14T13:50:36.535Z,15.50
2022-12-14T13:53:17.369Z,14.83
2022-12-14T13:55:51.832Z,15.77
2022-12-14T13:58:22.722Z,19.80
2022-12-14T14:00:53.951Z,16.07
2022-12-14T14:03:45.863Z,18.47
2022-12-14T14:06:20.474Z,18.23
2022-12-14T14:08:51.792Z,17.30
2022-12-14T14:11:46.174Z,16.80
2022-12-14T14:14:26.536Z,17.93
2022-12-14T14:16:58.215Z,17.77
2022-12-14T14:19:29.176Z,18.17
2022-12-14T14:22:26.048Z,19.33
2022-12-14T14:25:01.586Z,21.03
2022-12-14T14:27:37.101Z,18.80
2022-12-14T14:30:22.107Z,19.33
2022-12-14T14:33:07.664Z,22.70
2022-12-14T14:35:41.888Z,21.20
2022-12-14T14:38:24.545Z,18.73
2022-12-14T14:41:16.118Z,20.87
2022-12-14T14:43:51.614Z,25.33
2022-12-14T14:46:23.328Z,24.10
2022-12-14T14:48:54.719Z,25.43
2022-12-14T14:51:27.892Z,22.37
2022-12-14T14:57:55.792Z,21.93
2022-12-14T15:00:24.357Z,18.43
2022-12-14T15:02:54.970Z,18.90
2022-12-14T15:05:44.113Z,18.03
2022-12-14T15:08:20.720Z,20.93
2022-12-14T15:10:50.830Z,21.17
2022-12-14T15:13:24.684Z,20.70
2022-12-14T15:15:56.752Z,18.30
2022-12-14T15:18:27.357Z,19.90
2022-12-14T15:20:59.336Z,21.80
2022-12-14T15:23:33.273Z,20.70
2022-12-14T15:26:04.218Z,20.23
2022-12-14T15:28:34.411Z,24.77
2022-12-14T15:31:02.897Z,24.23
2022-12-14T15:33:35.093Z,24.37
2022-12-14T15:36:05.692Z,25.10
2022-12-14T15:38:35.794Z,25.00
2022-12-14T15:41:06.622Z,21.33
2022-12-14T15:43:36.862Z,28.10
2022-12-14T15:46:05.184Z,25.43
2022-12-14T15:48:35.324Z,22.70
2022-12-14T15:51:06.778Z,20.57
2022-12-14T15:53:38.715Z,20.37
2022-12-14T15:56:20.379Z,19.23
2022-12-14T15:58:50.593Z,21.13
2022-12-14T16:01:22.940Z,20.63
2022-12-14T16:03:56.874Z,21.83
2022-12-14T16:06:28.570Z,20.03
2022-12-14T16:08:59.687Z,18.90
2022-12-14T16:11:34.519Z,20.80
2022-12-14T16:14:11.256Z,21.13
2022-12-14T16:16:39.752Z,20.57
2022-12-14T16:19:26.398Z,23.93
2022-12-14T16:22:21.777Z,20.60
2022-12-14T16:25:17.493Z,23.25
2022-12-14T16:27:50.101Z,24.27
2022-12-14T16:30:27.365Z,23.20
2022-12-14T16:33:08.053Z,26.27
2022-12-14T16:35:38.775Z,26.50
2022-12-14T16:38:09.782Z,26.43
2022-12-14T16:40:40.142Z,25.07
2022-12-14T16:43:24.493Z,22.60
2022-12-14T16:46:13.889Z,24.20
2022-12-14T16:48:45.676Z,24.87
2022-12-14T16:52:05.156Z,27.50
2022-12-14T16:54:27.822Z,26.57
2022-12-14T16:57:02.138Z,25.63
2022-12-14T16:59:38.165Z,26.30
2022-12-14T17:02:28.253Z,26.57
2022-12-14T17:04:58.709Z,36.17
2022-12-14T17:07:29.216Z,23.83
2022-12-14T17:09:57.709Z,21.87
2022-12-14T17:12:29.344Z,26.47
2022-12-14T17:14:57.661Z,28.37
2022-12-14T17:17:34.007Z,27.07
2022-12-14T17:20:07.982Z,27.00
2022-12-14T17:22:39.157Z,27.17
2022-12-14T17:25:08.163Z,27.07
2022-12-14T17:27:36.554Z,30.60
2022-12-14T17:30:05.637Z,30.37
2022-12-14T17:32:36.377Z,26.63
2022-12-14T17:35:05.575Z,29.00
2022-12-14T17:37:36.541Z,26.17
2022-12-14T17:40:07.822Z,28.17
2022-12-14T17:42:38.342Z,28.33
2022-12-14T17:45:08.458Z,26.17
2022-12-14T17:47:38.122Z,26.47
2022-12-14T17:50:07.600Z,30.03
2022-12-14T17:52:36.028Z,29.40
2022-12-14T17:55:05.135Z,29.60
2022-12-14T17:57:33.531Z,31.83
2022-12-14T18:00:19.509Z,26.90
2022-12-14T18:02:49.311Z,30.47
2022-12-14T18:05:22.715Z,29.07
2022-12-14T18:07:51.259Z,35.00
2022-12-14T18:10:19.748Z,31.70
2022-12-14T18:12:48.622Z,32.80
2022-12-14T18:15:22.618Z,32.80
2022-12-14T18:17:52.475Z,32.87
2022-12-14T18:20:23.583Z,35.80
2022-12-14T18:22:52.984Z,34.37
2022-12-14T18:25:33.139Z,32.70
2022-12-14T18:28:02.269Z,31.13
2022-12-14T18:30:36.951Z,28.80
2022-12-14T18:33:14.643Z,29.10
2022-12-14T18:35:43.867Z,49.27
2022-12-14T18:38:13.631Z,54.03
2022-12-14T18:40:44.486Z,32.50
2022-12-14T18:43:20.503Z,30.87
2022-12-14T18:45:49.089Z,39.23
2022-12-14T18:48:19.591Z,29.87
2022-12-14T18:50:49.729Z,23.90
2022-12-14T18:53:19.861Z,23.07
2022-12-14T18:55:49.391Z,25.10
2022-12-14T18:58:20.153Z,22.27
2022-12-14T19:00:50.866Z,24.13
2022-12-14T19:03:21.254Z,35.57
2022-12-14T19:05:49.803Z,32.30
2022-12-14T19:08:19.238Z,30.50
2022-12-14T19:10:50.316Z,26.47
2022-12-14T19:13:25.825Z,30.97
2022-12-14T19:15:54.711Z,31.10
2022-12-14T19:18:24.488Z,60.17
2022-12-14T19:20:53.269Z,38.20
2022-12-14T19:23:22.427Z,39.70
2022-12-14T19:25:50.975Z,28.77
2022-12-14T19:28:32.563Z,29.93
2022-12-14T19:31:02.120Z,28.00
2022-12-14T19:33:32.647Z,34.17
2022-12-14T19:36:01.413Z,33.83
2022-12-14T19:38:30.186Z,33.37
2022-12-14T19:41:01.522Z,33.47
2022-12-14T19:43:33.183Z,33.37
2022-12-14T19:46:08.040Z,30.90
2022-12-14T19:48:38.725Z,34.43
2022-12-14T19:51:08.895Z,31.87
2022-12-14T19:53:37.724Z,32.67
2022-12-14T19:56:07.005Z,30.07
2022-12-14T19:58:35.467Z,27.57
2022-12-14T20:01:08.304Z,37.50
2022-12-14T20:03:38.976Z,30.93
2022-12-14T20:06:10.271Z,29.97
2022-12-14T20:08:38.712Z,29.13
2022-12-14T20:11:07.867Z,32.17
2022-12-14T20:13:36.502Z,26.23
2022-12-14T20:16:05.014Z,31.60
2022-12-14T20:18:33.972Z,30.47
2022-12-14T20:21:05.071Z,30.00
2022-12-14T20:23:35.463Z,29.40
2022-12-14T20:26:04.934Z,35.67
2022-12-14T20:28:33.209Z,30.90
2022-12-14T20:31:01.873Z,33.83
2022-12-14T20:33:31.187Z,25.90
2022-12-14T20:36:00.553Z,29.90
2022-12-14T20:38:30.908Z,32.03
2022-12-14T20:41:05.907Z,31.93
2022-12-14T20:43:36.732Z,35.33
2022-12-14T20:46:06.073Z,29.10
2022-12-14T20:48:34.757Z,33.33
2022-12-14T20:51:04.453Z,28.77
2022-12-14T20:53:34.838Z,31.10
2022-12-14T20:56:05.241Z,31.73
2022-12-14T20:58:33.591Z,40.07
2022-12-14T21:01:07.475Z,39.10
2022-12-14T21:03:36.667Z,35.93
2022-12-14T21:06:05.610Z,32.27
2022-12-14T21:08:57.271Z,35.77
2022-12-14T21:11:43.408Z,35.73
2022-12-14T21:14:12.305Z,37.37
2022-12-14T21:16:40.849Z,35.07
2022-12-14T21:19:09.393Z,33.00
2022-12-14T21:21:37.775Z,38.57
2022-12-14T21:24:09.898Z,32.67
2022-12-14T21:26:40.020Z,37.50
2022-12-14T21:29:09.152Z,40.37
2022-12-14T21:31:37.946Z,33.43
2022-12-14T21:34:06.724Z,32.77
2022-12-14T21:36:35.597Z,32.30
2022-12-14T21:39:04.434Z,33.50
2022-12-14T21:41:51.754Z,36.17
2022-12-14T21:44:20.077Z,35.23
2022-12-14T21:46:49.077Z,32.77
2022-12-14T21:49:17.581Z,36.13
2022-12-14T21:51:45.937Z,37.70
2022-12-14T21:54:18.450Z,37.73
2022-12-14T21:57:05.548Z,29.00
2022-12-14T21:59:35.437Z,36.87
2022-12-14T22:02:06.616Z,30.60
2022-12-14T22:04:39.728Z,33.87
2022-12-14T22:07:08.664Z,32.17
2022-12-14T22:09:37.049Z,29.83
2022-12-14T22:12:07.190Z,31.57
2022-12-14T22:14:36.016Z,30.23
2022-12-14T22:17:04.865Z,34.47
2022-12-14T22:19:33.134Z,33.27
2022-12-14T22:22:02.178Z,28.30
2022-12-14T22:24:31.223Z,32.23
2022-12-14T22:27:00.270Z,28.87
2022-12-14T22:29:29.993Z,29.70
2022-12-14T22:31:58.372Z,33.37
2022-12-14T22:34:27.113Z,30.60
2022-12-14T22:36:55.320Z,28.90
2022-12-14T22:39:23.600Z,30.73
2022-12-14T22:41:52.282Z,33.70
2022-12-14T22:44:20.921Z,36.20
2022-12-14T22:46:50.997Z,35.17
2022-12-14T22:49:20.840Z,37.27
2022-12-14T22:51:50.475Z,47.23
2022-12-14T22:54:22.297Z,45.13
2022-12-14T22:56:53.970Z,39.10
2022-12-14T22:59:26.680Z,32.77
2022-12-14T23:01:56.529Z,32.47
2022-12-14T23:04:24.929Z,36.67
2022-12-14T23:06:53.844Z,31.90
2022-12-14T23:09:39.600Z,27.53
2022-12-14T23:12:25.726Z,29.67
2022-12-14T23:15:11.198Z,26.63
2022-12-14T23:17:58.363Z,28.33
2022-12-14T23:20:43.983Z,25.10
2022-12-14T23:23:29.931Z,33.27
2022-12-14T23:26:20.779Z,31.90
2022-12-14T23:29:06.652Z,34.17
2022-12-14T23:31:52.207Z,30.87
2022-12-14T23:34:39.004Z,35.57
2022-12-14T23:37:24.367Z,29.10
2022-12-14T23:40:09.853Z,31.60
2022-12-14T23:42:56.060Z,25.80
2022-12-14T23:45:41.752Z,26.60
2022-12-14T23:48:27.664Z,29.60
2022-12-14T23:51:14.792Z,26.13
2022-12-14T23:54:00.124Z,26.50
2022-12-14T23:56:46.065Z,32.80
2022-12-14T23:59:32.586Z,30.20
